createdAt,value
2023-04-19T00:00:57.572Z,97080.23
2023-04-19T00:03:28.196Z,97074.20
2023-04-19T00:05:59.621Z,97074.02
2023-04-19T00:08:30.337Z,97073.58
2023-04-19T00:11:00.419Z,97072.20
2023-04-19T00:13:30.951Z,97072.38
2023-04-19T00:16:01.896Z,97073.63
2023-04-19T00:18:32.152Z,97075.10
2023-04-19T00:21:03.038Z,97070.64
2023-04-19T00:23:33.173Z,97062.02
2023-04-19T00:26:05.299Z,97059.92
2023-04-19T00:28:36.444Z,97056.92
2023-04-19T00:31:07.480Z,97060.65
2023-04-19T00:33:38.083Z,97055.80
2023-04-19T00:36:10.458Z,97052.98
2023-04-19T00:38:41.249Z,97049.86
2023-04-19T00:41:11.448Z,97050.64
2023-04-19T00:43:41.712Z,97047.04
2023-04-19T00:46:12.122Z,97038.85
2023-04-19T00:48:42.502Z,97038.61
2023-04-19T00:51:12.768Z,97034.39
2023-04-19T00:53:43.363Z,97035.75
2023-04-19T00:56:13.628Z,97034.80
2023-04-19T00:58:43.731Z,97030.98
2023-04-19T01:01:14.174Z,97031.16
2023-04-19T01:03:44.694Z,97029.19
2023-04-19T01:06:15.484Z,97023.56
2023-04-19T01:08:46.256Z,97015.56
2023-04-19T01:11:16.614Z,97010.86
2023-04-19T01:13:46.816Z,97008.16
2023-04-19T01:16:17.101Z,97003.98
2023-04-19T01:18:47.312Z,97000.83
2023-04-19T01:21:18.468Z,96991.73
2023-04-19T01:23:48.957Z,96987.66
2023-04-19T01:26:19.531Z,96986.08
2023-04-19T01:28:50.156Z,96984.67
2023-04-19T01:31:20.556Z,96981.81
2023-04-19T01:33:50.828Z,96978.48
2023-04-19T01:36:21.072Z,96971.16
2023-04-19T01:38:51.286Z,96972.06
2023-04-19T01:41:22.800Z,96965.85
2023-04-19T01:43:52.901Z,96961.05
2023-04-19T01:46:23.711Z,96954.55
2023-04-19T01:48:54.379Z,96960.55
2023-04-19T01:51:24.808Z,96970.58
2023-04-19T01:53:55.202Z,96974.05
2023-04-19T01:56:25.864Z,96971.09
2023-04-19T01:58:56.438Z,96967.86
2023-04-19T02:01:26.943Z,96973.52
2023-04-19T02:03:57.603Z,96970.45
2023-04-19T02:06:28.095Z,96973.41
2023-04-19T02:08:58.186Z,96976.91
2023-04-19T02:11:28.505Z,96980.41
2023-04-19T02:13:58.658Z,96979.61
2023-04-19T02:16:28.854Z,96977.40
2023-04-19T02:18:59.141Z,96974.77
2023-04-19T02:21:29.223Z,96972.80
2023-04-19T02:23:59.606Z,96972.47
2023-04-19T02:26:29.831Z,96974.16
2023-04-19T02:29:00.069Z,96969.42
2023-04-19T02:31:30.399Z,96964.09
2023-04-19T02:34:00.920Z,96967.34
2023-04-19T02:36:30.978Z,96960.46
2023-04-19T02:39:01.384Z,96956.10
2023-04-19T02:41:31.405Z,96956.77
2023-04-19T02:44:02.175Z,96956.19
2023-04-19T02:46:32.842Z,96953.27
2023-04-19T02:49:03.724Z,96952.73
2023-04-19T02:51:34.401Z,96945.29
2023-04-19T02:54:05.163Z,96940.83
2023-04-19T02:56:35.353Z,96942.36
2023-04-19T02:59:05.847Z,96940.98
2023-04-19T03:01:36.061Z,96943.22
2023-04-19T03:04:06.516Z,96944.16
2023-04-19T03:06:39.940Z,96945.16
2023-04-19T03:09:10.148Z,96946.76
2023-04-19T03:11:40.443Z,96950.81
2023-04-19T03:14:11.038Z,96947.40
2023-04-19T03:16:41.812Z,96945.70
2023-04-19T03:19:12.645Z,96945.01
2023-04-19T03:21:42.804Z,96939.48
2023-04-19T03:24:13.540Z,96938.33
2023-04-19T03:26:43.721Z,96939.44
2023-04-19T03:29:15.039Z,96936.73
2023-04-19T03:31:45.431Z,96933.27
2023-04-19T03:34:16.443Z,96935.16
2023-04-19T03:36:46.941Z,96933.66
2023-04-19T03:39:17.165Z,96930.55
2023-04-19T03:41:47.734Z,96930.73
2023-04-19T03:44:18.976Z,96932.49
2023-04-19T03:46:49.162Z,96930.81
2023-04-19T03:49:19.367Z,96929.13
2023-04-19T03:51:51.329Z,96927.91
2023-04-19T03:54:21.732Z,96933.07
2023-04-19T03:56:51.842Z,96932.56
2023-04-19T03:59:22.388Z,96935.55
2023-04-19T04:01:52.963Z,96936.52
2023-04-19T04:04:23.937Z,96937.81
2023-04-19T04:06:54.413Z,96935.88
2023-04-19T04:09:24.548Z,96934.15
2023-04-19T04:11:55.963Z,96931.70
2023-04-19T04:14:26.572Z,96932.52
2023-04-19T04:16:56.892Z,96928.73
2023-04-19T04:19:27.834Z,96923.15
2023-04-19T04:21:58.161Z,96925.72
2023-04-19T04:24:28.803Z,96928.73
2023-04-19T04:27:00.933Z,96929.00
2023-04-19T04:29:31.902Z,96924.42
2023-04-19T04:32:02.372Z,96924.84
2023-04-19T04:34:33.412Z,96914.84
2023-04-19T04:37:03.596Z,96911.52
2023-04-19T04:39:39.170Z,96907.25
2023-04-19T04:42:09.887Z,96910.72
2023-04-19T04:44:41.206Z,96908.98
2023-04-19T04:47:13.485Z,96900.00
2023-04-19T04:49:43.921Z,96895.48
2023-04-19T04:52:14.643Z,96896.64
2023-04-19T04:54:44.802Z,96886.23
2023-04-19T04:57:15.613Z,96884.67
2023-04-19T04:59:46.194Z,96881.16
2023-04-19T05:02:17.025Z,96881.84
2023-04-19T05:04:47.443Z,96875.15
2023-04-19T05:07:18.764Z,96878.80
2023-04-19T05:09:49.238Z,96870.71
2023-04-19T05:12:19.673Z,96862.41
2023-04-19T05:14:49.774Z,96859.34
2023-04-19T05:17:20.191Z,96855.69
2023-04-19T05:19:53.521Z,96854.59
2023-04-19T05:22:25.504Z,96844.44
2023-04-19T05:24:56.888Z,96841.92
2023-04-19T05:27:27.319Z,96844.40
2023-04-19T05:29:57.625Z,96844.27
2023-04-19T05:32:29.578Z,96842.13
2023-04-19T05:35:01.632Z,96848.51
2023-04-19T05:37:31.908Z,96852.42
2023-04-19T05:40:05.341Z,96846.02
2023-04-19T05:42:35.894Z,96844.20
2023-04-19T05:45:07.975Z,96838.60
2023-04-19T05:47:38.510Z,96829.70
2023-04-19T05:50:11.295Z,96828.09
2023-04-19T05:52:41.859Z,96828.20
2023-04-19T05:55:12.433Z,96832.22
2023-04-19T05:57:43.886Z,96829.20
2023-04-19T06:00:18.088Z,96827.58
2023-04-19T06:02:51.177Z,96821.67
2023-04-19T06:05:24.404Z,96818.70
2023-04-19T06:08:02.582Z,96821.77
2023-04-19T06:10:44.525Z,96825.48
2023-04-19T06:13:41.558Z,96831.98
2023-04-19T06:16:12.072Z,96836.51
2023-04-19T06:18:42.976Z,96839.56
2023-04-19T06:21:13.134Z,96829.56
2023-04-19T06:23:43.718Z,96824.48
2023-04-19T06:26:13.855Z,96813.83
2023-04-19T06:28:44.187Z,96809.48
2023-04-19T06:31:16.069Z,96805.55
2023-04-19T06:33:46.607Z,96804.52
2023-04-19T06:36:16.859Z,96799.70
2023-04-19T06:38:47.086Z,96804.98
2023-04-19T06:41:17.963Z,96804.73
2023-04-19T06:43:48.226Z,96803.92
2023-04-19T06:46:22.340Z,96797.55
2023-04-19T06:48:52.862Z,96799.02
2023-04-19T06:51:24.406Z,96792.60
2023-04-19T06:54:13.436Z,96794.42
2023-04-19T06:56:47.039Z,96791.13
2023-04-19T06:59:18.840Z,96792.78
2023-04-19T07:01:49.319Z,96795.27
2023-04-19T07:04:19.955Z,96786.69
2023-04-19T07:06:51.629Z,96789.27
2023-04-19T07:09:22.424Z,96785.64
2023-04-19T07:11:53.486Z,96783.31
2023-04-19T07:14:23.785Z,96775.85
2023-04-19T07:16:55.218Z,96767.42
2023-04-19T07:19:26.100Z,96768.48
2023-04-19T07:21:59.350Z,96766.13
2023-04-19T07:24:32.915Z,96761.27
2023-04-19T07:27:03.459Z,96762.13
2023-04-19T07:29:33.915Z,96758.98
2023-04-19T07:32:06.013Z,96751.77
2023-04-19T07:34:36.484Z,96746.06
2023-04-19T07:37:06.706Z,96741.15
2023-04-19T07:39:37.672Z,96734.21
2023-04-19T07:42:08.791Z,96728.11
2023-04-19T07:44:39.304Z,96725.94
2023-04-19T07:47:09.670Z,96720.58
2023-04-19T07:49:40.509Z,96718.06
2023-04-19T07:52:10.664Z,96713.33
2023-04-19T07:54:41.179Z,96709.82
2023-04-19T07:57:11.397Z,96711.20
2023-04-19T07:59:41.613Z,96714.89
2023-04-19T08:02:12.492Z,96712.96
2023-04-19T08:04:43.103Z,96710.67
2023-04-19T08:07:17.086Z,96703.64
2023-04-19T08:09:50.007Z,96693.34
2023-04-19T08:15:06.877Z,96690.25
2023-04-19T08:17:45.632Z,96682.98
2023-04-19T08:20:19.252Z,96680.14
2023-04-19T08:22:49.610Z,96677.20
2023-04-19T08:25:21.070Z,96670.14
2023-04-19T08:27:51.203Z,96664.80
2023-04-19T08:30:22.197Z,96661.31
2023-04-19T08:32:54.274Z,96663.67
2023-04-19T08:35:26.769Z,96666.03
2023-04-19T08:37:58.174Z,96666.94
2023-04-19T08:40:28.305Z,96658.03
2023-04-19T08:42:59.228Z,96649.73
2023-04-19T08:45:29.906Z,96649.25
2023-04-19T08:48:02.127Z,96647.40
2023-04-19T08:50:38.923Z,96642.23
2023-04-19T08:53:24.590Z,96642.16
2023-04-19T08:56:08.678Z,96640.56
2023-04-19T09:01:26.799Z,96644.77
2023-04-19T09:04:26.408Z,96642.05
2023-04-19T09:06:56.720Z,96640.46
2023-04-19T09:09:38.717Z,96633.61
2023-04-19T09:12:18.962Z,96635.62
2023-04-19T09:15:01.113Z,96631.77
2023-04-19T09:17:32.715Z,96633.12
2023-04-19T09:20:04.342Z,96631.45
2023-04-19T09:22:35.436Z,96628.56
2023-04-19T09:27:40.064Z,96624.85
2023-04-19T09:30:20.772Z,96621.09
2023-04-19T09:32:54.487Z,96618.22
2023-04-19T09:35:41.638Z,96616.52
2023-04-19T09:38:12.721Z,96607.95
2023-04-19T09:40:44.687Z,96602.83
2023-04-19T09:43:45.108Z,96602.46
2023-04-19T09:46:05.788Z,96593.02
2023-04-19T09:48:36.793Z,96586.36
2023-04-19T09:51:11.861Z,96586.98
2023-04-19T09:53:44.755Z,96580.91
2023-04-19T09:56:15.308Z,96574.48
2023-04-19T09:58:51.194Z,96576.38
2023-04-19T10:01:26.450Z,96576.70
2023-04-19T10:03:59.184Z,96575.65
2023-04-19T10:06:58.399Z,96575.06
2023-04-19T10:09:34.004Z,96566.08
2023-04-19T10:12:21.013Z,96566.11
2023-04-19T10:14:57.820Z,96561.66
2023-04-19T10:17:28.677Z,96559.26
2023-04-19T10:20:06.509Z,96551.36
2023-04-19T10:22:38.444Z,96546.85
2023-04-19T10:25:13.425Z,96539.85
2023-04-19T10:27:46.659Z,96531.42
2023-04-19T10:30:24.634Z,96524.89
2023-04-19T10:32:57.026Z,96521.60
2023-04-19T10:35:29.632Z,96518.73
2023-04-19T10:38:12.115Z,96510.00
2023-04-19T10:41:00.814Z,96499.88
2023-04-19T10:43:31.746Z,96495.66
2023-04-19T10:46:03.445Z,96484.02
2023-04-19T10:48:37.676Z,96486.20
2023-04-19T10:51:20.526Z,96486.14
2023-04-19T10:53:58.827Z,96481.58
2023-04-19T10:57:00.063Z,96473.92
2023-04-19T10:59:33.303Z,96473.33
2023-04-19T11:02:09.734Z,96464.23
2023-04-19T11:05:02.453Z,96466.79
2023-04-19T11:07:41.380Z,96462.59
2023-04-19T11:10:14.384Z,96459.06
2023-04-19T11:12:48.057Z,96454.27
2023-04-19T11:15:19.949Z,96453.08
2023-04-19T11:18:08.981Z,96452.02
2023-04-19T11:20:45.959Z,96450.89
2023-04-19T11:23:19.511Z,96441.27
2023-04-19T11:25:53.320Z,96431.39
2023-04-19T11:28:24.717Z,96428.42
2023-04-19T11:30:56.086Z,96431.70
2023-04-19T11:33:28.548Z,96434.12
2023-04-19T11:35:58.986Z,96435.27
2023-04-19T11:38:30.215Z,96431.61
2023-04-19T11:41:05.308Z,96423.29
2023-04-19T11:43:35.897Z,96414.52
2023-04-19T11:46:10.381Z,96406.07
2023-04-19T11:48:50.317Z,96402.09
2023-04-19T11:51:20.705Z,96405.20
2023-04-19T11:53:51.144Z,96405.35
2023-04-19T11:56:21.733Z,96404.51
2023-04-19T11:58:52.547Z,96396.69
2023-04-19T12:01:24.946Z,96391.79
2023-04-19T12:03:57.490Z,96397.15
2023-04-19T12:06:29.778Z,96408.45
2023-04-19T12:08:59.997Z,96416.49
2023-04-19T12:11:45.438Z,96401.52
2023-04-19T12:14:18.346Z,96390.86
2023-04-19T12:17:03.221Z,96384.23
2023-04-19T12:19:37.426Z,96386.50
2023-04-19T12:22:12.687Z,96379.81
2023-04-19T12:24:43.397Z,96377.42
2023-04-19T12:27:14.231Z,96373.36
2023-04-19T12:29:44.785Z,96368.36
2023-04-19T12:32:17.737Z,96365.73
2023-04-19T12:34:48.215Z,96361.46
2023-04-19T12:37:18.575Z,96360.05
2023-04-19T12:39:51.439Z,96354.98
2023-04-19T12:42:21.633Z,96354.23
2023-04-19T12:44:51.802Z,96363.05
2023-04-19T12:47:22.169Z,96374.50
2023-04-19T12:49:52.631Z,96382.46
2023-04-19T12:52:23.022Z,96384.02
2023-04-19T12:54:53.604Z,96385.00
2023-04-19T12:57:24.253Z,96391.01
2023-04-19T12:59:54.418Z,96400.33
2023-04-19T13:02:24.729Z,96405.90
2023-04-19T13:04:57.619Z,96414.07
2023-04-19T13:07:28.429Z,96407.48
2023-04-19T13:09:58.636Z,96391.02
2023-04-19T13:12:29.956Z,96374.67
2023-04-19T13:15:02.700Z,96374.77
2023-04-19T13:17:34.705Z,96388.92
2023-04-19T13:20:06.646Z,96381.27
2023-04-19T13:22:36.853Z,96366.95
2023-04-19T13:25:08.468Z,96366.42
2023-04-19T13:27:39.056Z,96368.27
2023-04-19T13:30:11.498Z,96364.08
2023-04-19T13:32:41.828Z,96367.00
2023-04-19T13:35:12.431Z,96337.38
2023-04-19T13:37:44.094Z,96310.75
2023-04-19T13:40:19.217Z,96311.48
2023-04-19T13:42:49.951Z,96306.65
2023-04-19T13:45:20.132Z,96287.33
2023-04-19T13:47:50.706Z,96281.43
2023-04-19T13:50:21.374Z,96290.21
2023-04-19T13:52:53.735Z,96275.23
2023-04-19T13:55:24.427Z,96249.36
2023-04-19T13:57:54.711Z,96287.66
2023-04-19T14:00:26.747Z,96310.73
2023-04-19T14:15:28.609Z,96314.95
2023-04-19T14:17:59.291Z,96316.95
2023-04-19T14:20:29.645Z,96328.45
2023-04-19T14:23:00.845Z,96333.40
2023-04-19T14:25:31.372Z,96345.54
2023-04-19T14:28:01.777Z,96359.10
2023-04-19T14:30:32.244Z,96376.27
2023-04-19T14:33:02.762Z,96387.67
2023-04-19T14:35:33.329Z,96393.59
2023-04-19T14:38:03.819Z,96394.13
2023-04-19T14:41:30.838Z,96392.16
2023-04-19T14:44:01.588Z,96394.67
2023-04-19T14:46:31.846Z,96391.77
2023-04-19T14:49:05.737Z,96385.64
2023-04-19T14:51:36.036Z,96377.42
2023-04-19T14:54:06.732Z,96377.67
2023-04-19T14:56:39.428Z,96373.91
2023-04-19T14:59:09.949Z,96366.77
2023-04-19T15:01:40.611Z,96363.69
2023-04-19T15:04:21.487Z,96363.23
2023-04-19T15:06:57.543Z,96353.16
2023-04-19T15:09:28.218Z,96345.04
2023-04-19T15:12:01.029Z,96349.47
2023-04-19T15:14:32.333Z,96354.89
2023-04-19T15:17:05.937Z,96354.88
2023-04-19T15:19:36.396Z,96361.52
2023-04-19T15:22:06.639Z,96355.94
2023-04-19T15:24:36.953Z,96357.43
2023-04-19T15:27:07.757Z,96361.13
2023-04-19T15:29:39.242Z,96361.75
2023-04-19T15:32:10.619Z,96360.88
2023-04-19T15:34:42.099Z,96362.19
2023-04-19T15:37:15.348Z,96375.34
2023-04-19T15:39:46.131Z,96399.63
2023-04-19T15:42:16.526Z,96411.21
2023-04-19T15:44:49.414Z,96408.18
2023-04-19T15:47:19.806Z,96391.20
2023-04-19T15:49:54.717Z,96380.04
2023-04-19T15:52:25.195Z,96374.35
2023-04-19T15:54:55.844Z,96374.35
2023-04-19T17:10:30.853Z,96493.12
2023-04-19T20:17:08.268Z,96377.56
2023-04-19T21:12:16.931Z,96358.60
2023-04-19T21:15:37.567Z,96356.98
2023-04-19T21:19:10.156Z,96357.63
2023-04-19T21:21:41.666Z,96358.73
2023-04-19T21:24:16.619Z,96357.53
2023-04-19T21:29:57.679Z,96352.49
2023-04-19T21:32:28.706Z,96355.04
2023-04-19T21:34:59.454Z,96357.93
2023-04-19T21:37:31.765Z,96350.38
2023-04-19T21:40:07.992Z,96348.05
2023-04-19T21:53:47.901Z,96349.75
2023-04-19T22:07:30.639Z,96344.44
2023-04-19T22:10:37.419Z,96342.02
2023-04-19T22:13:17.967Z,96342.00
2023-04-19T22:15:54.090Z,96341.67
2023-04-19T22:18:34.698Z,96336.89
2023-04-19T22:21:10.540Z,96337.87
2023-04-19T22:34:56.996Z,96339.30
2023-04-19T22:38:05.335Z,96338.92
2023-04-19T22:41:26.044Z,96332.10
2023-04-19T22:45:02.710Z,96330.23
2023-04-19T22:47:38.424Z,96333.20
2023-04-19T22:50:24.796Z,96333.52
2023-04-19T22:53:02.364Z,96338.97
2023-04-19T22:55:47.751Z,96344.14
2023-04-19T22:58:26.467Z,96339.69
2023-04-19T23:01:04.461Z,96335.58
2023-04-19T23:03:41.758Z,96332.14
2023-04-19T23:06:15.516Z,96329.48
2023-04-19T23:08:49.375Z,96324.20
2023-04-19T23:11:25.237Z,96324.05
2023-04-19T23:13:59.489Z,96318.89
2023-04-19T23:16:34.170Z,96317.55
2023-04-19T23:19:08.870Z,96312.48
2023-04-19T23:21:45.301Z,96322.02
2023-04-19T23:24:19.205Z,96327.93
2023-04-19T23:26:54.677Z,96334.98
2023-04-19T23:29:28.652Z,96338.73
2023-04-19T23:32:02.170Z,96336.84
2023-04-19T23:34:35.729Z,96335.04
2023-04-19T23:37:09.466Z,96333.62
2023-04-19T23:39:44.336Z,96334.80
2023-04-19T23:42:19.973Z,96334.57
2023-04-19T23:44:55.505Z,96328.77
2023-04-19T23:47:29.109Z,96325.89
2023-04-19T23:50:02.725Z,96329.18
2023-04-19T23:52:36.238Z,96332.39
2023-04-19T23:55:13.102Z,96330.10
2023-04-19T23:57:47.842Z,96324.92
